createdAt,value
2023-01-08T00:02:41.646Z,8.9
2023-01-08T00:05:41.643Z,8.9
2023-01-08T00:08:41.645Z,8.9
2023-01-08T00:11:41.633Z,8.9
2023-01-08T00:14:41.648Z,8.9
2023-01-08T00:17:41.646Z,9
2023-01-08T00:20:41.647Z,9
2023-01-08T00:23:41.651Z,9
2023-01-08T00:26:41.664Z,9
2023-01-08T00:29:41.651Z,9
2023-01-08T00:32:41.645Z,9
2023-01-08T00:38:41.652Z,9
2023-01-08T00:41:41.655Z,9
2023-01-08T00:44:41.648Z,9
2023-01-08T00:47:41.646Z,9
2023-01-08T00:50:41.646Z,9
2023-01-08T00:53:41.649Z,9
2023-01-08T00:56:41.647Z,9
2023-01-08T00:59:41.655Z,9
2023-01-08T01:02:41.652Z,9
2023-01-08T01:05:41.658Z,9
2023-01-08T01:08:41.651Z,9.1
2023-01-08T01:11:41.664Z,9.1
2023-01-08T01:14:41.659Z,9.1
2023-01-08T01:17:41.657Z,9.1
2023-01-08T01:20:41.814Z,9.1
2023-01-08T01:23:41.833Z,9.2
2023-01-08T01:26:41.661Z,9.2
2023-01-08T01:29:41.664Z,9.2
2023-01-08T01:32:41.653Z,9.3
2023-01-08T01:35:41.659Z,9.3
2023-01-08T01:38:41.653Z,9.3
2023-01-08T01:41:41.656Z,9.3
2023-01-08T01:44:41.661Z,9.3
2023-01-08T01:47:41.661Z,9.4
2023-01-08T01:50:41.661Z,9.4
2023-01-08T01:53:41.665Z,9.4
2023-01-08T01:56:41.663Z,9.4
2023-01-08T01:59:41.660Z,9.4
2023-01-08T02:02:41.663Z,9.4
2023-01-08T02:05:41.659Z,9.4
2023-01-08T02:08:41.660Z,9.5
2023-01-08T02:11:41.670Z,9.5
2023-01-08T02:14:41.661Z,9.5
2023-01-08T02:17:41.658Z,9.5
2023-01-08T02:20:41.661Z,9.5
2023-01-08T02:23:41.662Z,9.5
2023-01-08T02:26:41.659Z,9.5
2023-01-08T02:29:41.667Z,9.5
2023-01-08T02:32:41.668Z,9.5
2023-01-08T02:35:41.793Z,9.5
2023-01-08T02:38:41.812Z,9.5
2023-01-08T02:41:41.668Z,9.5
2023-01-08T02:44:41.667Z,9.5
2023-01-08T02:47:41.661Z,9.5
2023-01-08T02:50:41.688Z,9.5
2023-01-08T02:53:41.665Z,9.5
2023-01-08T02:56:41.669Z,9.4
2023-01-08T02:59:41.672Z,9.4
2023-01-08T03:02:41.665Z,9.4
2023-01-08T03:05:41.660Z,9.4
2023-01-08T03:08:41.665Z,9.3
2023-01-08T03:11:41.657Z,9.3
2023-01-08T03:14:41.663Z,9.3
2023-01-08T03:17:41.671Z,9.3
2023-01-08T03:20:41.671Z,9.3
2023-01-08T03:23:41.669Z,9.2
2023-01-08T03:26:41.667Z,9.2
2023-01-08T03:29:41.684Z,9.2
2023-01-08T03:32:41.672Z,9.2
2023-01-08T03:35:41.683Z,9.1
2023-01-08T03:38:41.673Z,9.1
2023-01-08T03:41:41.666Z,9.1
2023-01-08T03:44:41.688Z,9.1
2023-01-08T03:47:41.663Z,9
2023-01-08T03:50:41.682Z,9
2023-01-08T03:53:41.669Z,9
2023-01-08T03:56:41.665Z,9
2023-01-08T03:59:41.675Z,9
2023-01-08T04:02:41.711Z,9
2023-01-08T04:05:41.720Z,9
2023-01-08T04:08:41.676Z,9
2023-01-08T04:11:41.681Z,9
2023-01-08T04:14:41.693Z,9
2023-01-08T04:17:41.752Z,9
2023-01-08T04:20:41.674Z,8.9
2023-01-08T04:23:41.675Z,8.9
2023-01-08T04:26:41.679Z,8.9
2023-01-08T04:29:41.679Z,8.9
2023-01-08T04:32:41.798Z,8.9
2023-01-08T04:35:41.676Z,8.9
2023-01-08T04:38:41.681Z,8.9
2023-01-08T04:41:41.681Z,8.9
2023-01-08T04:44:41.682Z,8.9
2023-01-08T04:47:41.864Z,8.9
2023-01-08T04:50:41.681Z,8.9
2023-01-08T04:53:41.676Z,8.9
2023-01-08T04:56:41.678Z,8.9
2023-01-08T04:59:41.677Z,8.9
2023-01-08T05:02:41.962Z,8.9
2023-01-08T05:05:41.676Z,8.9
2023-01-08T05:08:41.685Z,8.9
2023-01-08T05:11:41.679Z,8.9
2023-01-08T05:14:41.679Z,8.9
2023-01-08T05:17:41.674Z,8.9
2023-01-08T05:20:41.705Z,8.9
2023-01-08T05:23:41.683Z,8.9
2023-01-08T05:26:41.682Z,8.9
2023-01-08T05:29:41.691Z,8.9
2023-01-08T05:32:41.684Z,8.9
2023-01-08T05:35:41.679Z,8.9
2023-01-08T05:38:41.681Z,8.9
2023-01-08T05:41:41.685Z,8.9
2023-01-08T05:44:41.690Z,8.9
2023-01-08T05:47:41.688Z,8.9
2023-01-08T05:50:41.691Z,8.9
2023-01-08T05:53:41.688Z,8.9
2023-01-08T05:56:41.690Z,8.9
2023-01-08T05:59:41.687Z,8.9
2023-01-08T06:02:41.737Z,8.9
2023-01-08T06:05:41.690Z,8.8
2023-01-08T06:08:41.694Z,8.8
2023-01-08T06:11:41.689Z,8.8
2023-01-08T06:14:41.685Z,8.8
2023-01-08T06:17:41.712Z,8.8
2023-01-08T06:20:41.699Z,8.8
2023-01-08T06:23:41.692Z,8.8
2023-01-08T06:26:41.727Z,8.8
2023-01-08T06:29:41.731Z,8.8
2023-01-08T06:32:41.705Z,8.8
2023-01-08T06:35:41.691Z,8.8
2023-01-08T06:38:41.705Z,8.8
2023-01-08T06:44:41.703Z,8.8
2023-01-08T06:47:41.699Z,8.8
2023-01-08T06:50:41.701Z,8.7
2023-01-08T06:53:41.709Z,8.7
2023-01-08T06:56:52.809Z,8.7
2023-01-08T06:59:41.701Z,8.7
2023-01-08T07:02:41.964Z,8.7
2023-01-08T07:05:41.703Z,8.7
2023-01-08T07:08:41.707Z,8.7
2023-01-08T07:17:41.699Z,8.7
2023-01-08T07:20:41.701Z,8.7
2023-01-08T07:26:41.702Z,8.7
2023-01-08T07:29:41.701Z,8.7
2023-01-08T07:32:41.712Z,8.7
2023-01-08T07:35:41.697Z,8.7
2023-01-08T07:38:41.705Z,8.7
2023-01-08T07:41:41.700Z,8.7
2023-01-08T07:44:41.709Z,8.7
2023-01-08T07:47:41.706Z,8.7
2023-01-08T07:50:41.713Z,8.7
2023-01-08T07:53:41.707Z,8.7
2023-01-08T07:56:41.722Z,8.7
2023-01-08T07:59:41.698Z,8.7
2023-01-08T08:02:41.814Z,8.7
2023-01-08T08:05:41.705Z,8.7
2023-01-08T08:08:42.334Z,8.7
2023-01-08T08:11:41.700Z,8.7
2023-01-08T08:14:41.706Z,8.7
2023-01-08T08:17:41.702Z,8.7
2023-01-08T08:20:41.703Z,8.7
2023-01-08T08:23:41.704Z,8.7
2023-01-08T08:26:41.711Z,8.7
2023-01-08T08:32:41.708Z,8.7
2023-01-08T08:35:41.705Z,8.7
2023-01-08T08:38:41.706Z,8.7
2023-01-08T08:41:41.705Z,8.7
2023-01-08T08:44:42.928Z,8.7
2023-01-08T08:47:41.705Z,8.7
2023-01-08T08:50:41.707Z,8.7
2023-01-08T08:53:41.735Z,8.7
2023-01-08T08:56:41.712Z,8.7
2023-01-08T08:59:41.707Z,8.7
2023-01-08T09:02:41.847Z,8.7
2023-01-08T09:05:41.704Z,8.7
2023-01-08T09:08:41.711Z,8.7
2023-01-08T09:11:41.712Z,8.7
2023-01-08T09:14:41.713Z,8.7
2023-01-08T09:17:41.724Z,8.7
2023-01-08T09:20:41.709Z,8.7
2023-01-08T09:23:41.713Z,8.7
2023-01-08T09:26:41.715Z,8.7
2023-01-08T09:29:41.722Z,8.6
2023-01-08T09:32:41.729Z,8.7
2023-01-08T09:35:41.714Z,8.7
2023-01-08T09:38:41.711Z,8.7
2023-01-08T09:41:41.715Z,8.7
2023-01-08T09:44:41.718Z,8.7
2023-01-08T09:47:41.745Z,8.7
2023-01-08T09:50:41.720Z,8.7
2023-01-08T09:53:41.729Z,8.7
2023-01-08T09:56:41.720Z,8.7
2023-01-08T09:59:41.721Z,8.7
2023-01-08T10:02:41.772Z,8.7
2023-01-08T10:05:41.727Z,8.7
2023-01-08T10:08:41.740Z,8.7
2023-01-08T10:11:41.730Z,8.7
2023-01-08T10:14:41.719Z,8.7
2023-01-08T10:17:41.724Z,8.7
2023-01-08T10:20:41.723Z,8.7
2023-01-08T10:23:41.728Z,8.8
2023-01-08T10:26:41.722Z,8.8
2023-01-08T10:29:41.738Z,8.8
2023-01-08T10:32:41.734Z,8.8
2023-01-08T10:35:41.731Z,8.8
2023-01-08T10:38:41.732Z,8.8
2023-01-08T10:41:41.732Z,8.8
2023-01-08T10:44:41.731Z,8.8
2023-01-08T10:47:41.725Z,8.8
2023-01-08T10:50:41.729Z,8.8
2023-01-08T10:53:41.743Z,8.8
2023-01-08T10:56:41.741Z,8.9
2023-01-08T10:59:41.741Z,8.9
2023-01-08T11:02:41.756Z,8.9
2023-01-08T11:05:41.736Z,8.9
2023-01-08T11:08:41.743Z,8.9
2023-01-08T11:11:41.757Z,8.9
2023-01-08T11:14:41.730Z,9
2023-01-08T11:17:41.736Z,9
2023-01-08T11:20:41.743Z,9
2023-01-08T11:23:41.729Z,9
2023-01-08T11:29:41.743Z,9.1
2023-01-08T11:32:41.740Z,9.1
2023-01-08T11:35:41.737Z,9.1
2023-01-08T11:38:41.745Z,9.2
2023-01-08T11:41:41.746Z,9.2
2023-01-08T11:44:41.739Z,9.2
2023-01-08T11:47:41.732Z,9.1
2023-01-08T11:50:41.748Z,9.1
2023-01-08T11:56:41.740Z,9.2
2023-01-08T11:59:41.745Z,9.2
2023-01-08T12:02:41.736Z,9.2
2023-01-08T12:05:41.742Z,9.2
2023-01-08T12:08:41.735Z,9.2
2023-01-08T12:11:41.753Z,9.3
2023-01-08T12:14:41.743Z,9.3
2023-01-08T12:17:41.742Z,9.3
2023-01-08T12:20:41.749Z,9.3
2023-01-08T12:23:41.747Z,9.3
2023-01-08T12:26:41.740Z,9.3
2023-01-08T12:29:41.741Z,9.3
2023-01-08T12:32:41.740Z,9.3
2023-01-08T12:35:41.744Z,9.3
2023-01-08T12:38:41.748Z,9.4
2023-01-08T12:41:41.739Z,9.4
2023-01-08T12:44:41.741Z,9.4
2023-01-08T12:47:41.738Z,9.4
2023-01-08T12:50:41.741Z,9.4
2023-01-08T12:56:41.740Z,9.4
2023-01-08T12:59:41.742Z,9.4
2023-01-08T13:02:41.798Z,9.5
2023-01-08T13:05:41.745Z,9.5
2023-01-08T13:08:41.740Z,9.5
2023-01-08T13:11:41.757Z,9.5
2023-01-08T13:14:41.754Z,9.5
2023-01-08T13:17:41.740Z,9.5
2023-01-08T13:23:41.745Z,9.5
2023-01-08T13:26:41.752Z,9.5
2023-01-08T13:29:41.744Z,9.6
2023-01-08T13:32:41.752Z,9.6
2023-01-08T13:35:41.753Z,9.6
2023-01-08T13:38:41.783Z,9.6
2023-01-08T13:41:41.767Z,9.6
2023-01-08T13:44:41.747Z,9.6
2023-01-08T13:47:41.755Z,9.6
2023-01-08T13:50:41.764Z,9.6
2023-01-08T13:53:41.756Z,9.6
2023-01-08T13:56:41.757Z,9.6
2023-01-08T13:59:41.772Z,9.6
2023-01-08T14:02:41.823Z,9.6
2023-01-08T14:05:41.751Z,9.6
2023-01-08T14:08:41.756Z,9.5
2023-01-08T14:11:41.746Z,9.5
2023-01-08T14:14:41.753Z,9.5
2023-01-08T14:17:41.757Z,9.5
2023-01-08T14:20:41.765Z,9.6
2023-01-08T14:23:41.755Z,9.6
2023-01-08T14:26:41.761Z,9.6
2023-01-08T14:29:41.758Z,9.6
2023-01-08T14:32:41.759Z,9.6
2023-01-08T14:35:41.758Z,9.6
2023-01-08T14:38:41.755Z,9.6
2023-01-08T14:44:42.495Z,9.6
2023-01-08T14:47:41.764Z,9.6
2023-01-08T14:50:41.769Z,9.6
2023-01-08T14:53:41.770Z,9.6
2023-01-08T14:56:41.767Z,9.6
2023-01-08T14:59:41.764Z,9.6
2023-01-08T15:02:41.768Z,9.6
2023-01-08T15:05:41.760Z,9.6
2023-01-08T15:11:41.763Z,9.5
2023-01-08T15:14:41.755Z,9.5
2023-01-08T15:17:41.764Z,9.5
2023-01-08T15:20:41.766Z,9.5
2023-01-08T15:23:41.759Z,9.4
2023-01-08T15:26:41.767Z,9.4
2023-01-08T15:29:41.760Z,9.4
2023-01-08T15:32:41.768Z,9.4
2023-01-08T15:35:41.774Z,9.3
2023-01-08T15:38:43.057Z,9.3
2023-01-08T15:41:41.770Z,9.3
2023-01-08T15:44:41.775Z,9.3
2023-01-08T15:47:41.769Z,9.2
2023-01-08T15:50:41.777Z,9.2
2023-01-08T15:53:41.770Z,9.2
2023-01-08T15:56:41.769Z,9.2
2023-01-08T15:59:41.774Z,9.2
2023-01-08T16:02:41.864Z,9.1
2023-01-08T16:05:41.785Z,9.1
2023-01-08T16:08:41.776Z,9.1
2023-01-08T16:11:41.773Z,9.1
2023-01-08T16:14:41.776Z,9.1
2023-01-08T16:17:41.775Z,9.1
2023-01-08T16:20:41.776Z,9.1
2023-01-08T16:23:41.771Z,9.1
2023-01-08T16:26:41.778Z,9.1
2023-01-08T16:29:41.777Z,9.1
2023-01-08T16:32:41.770Z,9.1
2023-01-08T16:35:41.772Z,9.1
2023-01-08T16:38:41.774Z,9.1
2023-01-08T16:41:41.770Z,9.1
2023-01-08T16:44:41.786Z,9.1
2023-01-08T16:47:41.778Z,9.1
2023-01-08T16:50:41.777Z,9.1
2023-01-08T16:53:41.775Z,9.1
2023-01-08T16:56:41.783Z,9.1
2023-01-08T16:59:41.783Z,9
2023-01-08T17:02:41.776Z,9
2023-01-08T17:08:41.778Z,9
2023-01-08T17:11:41.804Z,9
2023-01-08T17:14:41.779Z,9
2023-01-08T17:17:41.783Z,9
2023-01-08T17:20:41.789Z,9
2023-01-08T17:23:41.808Z,9
2023-01-08T17:26:41.787Z,8.9
2023-01-08T17:29:41.785Z,8.9
2023-01-08T17:32:41.787Z,8.9
2023-01-08T17:35:41.796Z,8.9
2023-01-08T17:38:41.782Z,8.9
2023-01-08T17:41:41.792Z,9
2023-01-08T17:44:41.791Z,9
2023-01-08T17:47:41.784Z,9
2023-01-08T17:50:41.788Z,9
2023-01-08T17:53:41.784Z,9
2023-01-08T17:56:41.801Z,9
2023-01-08T17:59:41.786Z,9
2023-01-08T18:02:41.820Z,9
2023-01-08T18:05:41.793Z,9
2023-01-08T18:08:41.828Z,9
2023-01-08T18:11:41.798Z,9
2023-01-08T18:14:41.791Z,9
2023-01-08T18:17:41.793Z,9
2023-01-08T18:20:41.787Z,9
2023-01-08T18:23:41.787Z,9
2023-01-08T18:26:41.789Z,9
2023-01-08T18:29:41.800Z,9
2023-01-08T18:32:41.795Z,9
2023-01-08T18:35:41.847Z,9
2023-01-08T18:38:41.811Z,8.9
2023-01-08T18:41:41.800Z,8.9
2023-01-08T18:44:41.813Z,8.9
2023-01-08T18:47:41.803Z,8.9
2023-01-08T18:50:41.815Z,8.8
2023-01-08T18:53:41.800Z,8.8
2023-01-08T18:56:41.802Z,8.8
2023-01-08T18:59:41.795Z,8.9
2023-01-08T19:02:41.835Z,8.9
2023-01-08T19:05:41.821Z,8.9
2023-01-08T19:08:41.804Z,8.9
2023-01-08T19:11:41.812Z,8.9
2023-01-08T19:14:41.808Z,8.9
2023-01-08T19:17:41.811Z,9
2023-01-08T19:20:41.812Z,9
2023-01-08T19:23:41.811Z,9
2023-01-08T19:26:41.812Z,9
2023-01-08T19:29:41.815Z,9
2023-01-08T19:32:41.807Z,9
2023-01-08T19:35:41.826Z,9
2023-01-08T19:38:41.806Z,9
2023-01-08T19:41:41.814Z,9
2023-01-08T19:44:41.830Z,9
2023-01-08T19:47:41.814Z,9
2023-01-08T19:50:41.808Z,9
2023-01-08T19:53:41.820Z,9
2023-01-08T19:56:41.814Z,9
2023-01-08T19:59:41.820Z,9
2023-01-08T20:02:41.887Z,9
2023-01-08T20:05:41.822Z,9
2023-01-08T20:08:41.823Z,9
2023-01-08T20:11:41.816Z,9
2023-01-08T20:14:41.811Z,9
2023-01-08T20:17:41.825Z,9
2023-01-08T20:20:41.811Z,9
2023-01-08T20:23:41.813Z,9
2023-01-08T20:26:41.819Z,9
2023-01-08T20:29:41.832Z,8.9
2023-01-08T20:32:41.813Z,8.9
2023-01-08T20:35:41.817Z,8.9
2023-01-08T20:38:41.815Z,8.9
2023-01-08T20:41:43.609Z,8.9
2023-01-08T20:44:41.821Z,8.9
2023-01-08T20:47:41.834Z,8.9
2023-01-08T20:50:41.838Z,8.9
2023-01-08T20:53:41.821Z,8.9
2023-01-08T20:56:41.817Z,8.9
2023-01-08T20:59:41.817Z,8.9
2023-01-08T21:02:41.821Z,8.9
2023-01-08T21:05:41.822Z,8.9
2023-01-08T21:08:41.825Z,8.9
2023-01-08T21:11:41.840Z,8.9
2023-01-08T21:14:41.825Z,8.9
2023-01-08T21:17:41.821Z,8.9
2023-01-08T21:20:41.836Z,8.9
2023-01-08T21:23:41.820Z,8.9
2023-01-08T21:26:41.826Z,8.9
2023-01-08T21:29:41.824Z,8.9
2023-01-08T21:32:41.834Z,8.9
2023-01-08T21:35:41.841Z,9
2023-01-08T21:38:41.830Z,9
2023-01-08T21:41:41.827Z,9
2023-01-08T21:50:41.831Z,9
2023-01-08T21:53:41.830Z,9
2023-01-08T21:56:41.833Z,9
2023-01-08T21:59:41.827Z,9
2023-01-08T22:02:41.830Z,9
2023-01-08T22:05:41.830Z,9
2023-01-08T22:08:41.832Z,9
2023-01-08T22:11:41.835Z,8.9
2023-01-08T22:14:41.852Z,8.9
2023-01-08T22:17:41.836Z,8.9
2023-01-08T22:20:41.837Z,8.9
2023-01-08T22:23:41.833Z,8.9
2023-01-08T22:26:41.842Z,8.9
2023-01-08T22:29:41.835Z,8.9
2023-01-08T22:32:41.847Z,8.8
2023-01-08T22:35:41.836Z,8.8
2023-01-08T22:38:41.841Z,8.8
2023-01-08T22:41:43.870Z,8.8
2023-01-08T22:44:41.837Z,8.8
2023-01-08T22:47:41.840Z,8.8
2023-01-08T22:50:41.840Z,8.8
2023-01-08T22:53:41.834Z,8.8
2023-01-08T22:56:41.840Z,8.8
2023-01-08T22:59:41.842Z,8.8
2023-01-08T23:02:41.894Z,8.8
2023-01-08T23:05:41.845Z,8.8
2023-01-08T23:08:41.839Z,8.8
2023-01-08T23:11:41.839Z,8.8
2023-01-08T23:14:41.852Z,8.8
2023-01-08T23:17:51.776Z,8.8
2023-01-08T23:20:41.836Z,8.8
2023-01-08T23:23:41.851Z,8.8
2023-01-08T23:26:41.846Z,8.8
2023-01-08T23:29:41.845Z,8.8
2023-01-08T23:32:41.838Z,8.8
2023-01-08T23:35:41.842Z,8.8
2023-01-08T23:38:41.837Z,8.8
2023-01-08T23:41:41.839Z,8.8
2023-01-08T23:44:41.844Z,8.8
2023-01-08T23:47:41.841Z,8.8
2023-01-08T23:50:41.840Z,8.8
2023-01-08T23:53:41.852Z,8.8
2023-01-08T23:56:41.840Z,8.8
2023-01-08T23:59:41.848Z,8.8
